createdAt,value
2016-11-16T00:00:39.769Z,976.44
2016-11-16T00:01:39.730Z,976.45
2016-11-16T00:02:39.690Z,976.45
2016-11-16T00:03:39.654Z,976.41
2016-11-16T00:04:39.611Z,976.38
2016-11-16T00:05:39.574Z,976.37
2016-11-16T00:06:39.535Z,976.37
2016-11-16T00:07:39.497Z,976.35
2016-11-16T00:08:39.456Z,976.33
2016-11-16T00:09:39.417Z,976.34
2016-11-16T00:10:39.378Z,976.28
2016-11-16T00:11:39.339Z,976.25
2016-11-16T00:12:39.300Z,976.29
2016-11-16T00:13:39.259Z,976.27
2016-11-16T00:14:39.221Z,976.21
2016-11-16T00:15:39.181Z,976.19
2016-11-16T00:16:39.145Z,976.21
2016-11-16T00:17:39.104Z,976.2
2016-11-16T00:18:39.064Z,976.2
2016-11-16T00:19:39.024Z,976.19
2016-11-16T00:20:38.986Z,976.19
2016-11-16T00:21:38.948Z,976.18
2016-11-16T00:22:38.907Z,976.15
2016-11-16T00:23:38.867Z,976.07
2016-11-16T00:24:38.830Z,976.07
2016-11-16T00:25:38.792Z,976.1
2016-11-16T00:26:38.751Z,976.09
2016-11-16T00:27:38.713Z,976.09
2016-11-16T00:28:38.674Z,976.11
2016-11-16T00:29:38.636Z,976.06
2016-11-16T00:30:38.596Z,976.04
2016-11-16T00:31:38.556Z,976.07
2016-11-16T00:32:38.516Z,976.12
2016-11-16T00:33:38.477Z,976.1
2016-11-16T00:34:38.437Z,976.05
2016-11-16T00:35:38.399Z,976
2016-11-16T00:36:38.359Z,976.03
2016-11-16T00:37:38.323Z,976
2016-11-16T00:38:38.281Z,976.09
2016-11-16T00:39:38.243Z,976.08
2016-11-16T00:40:38.205Z,976.04
2016-11-16T00:41:38.166Z,976.05
2016-11-16T00:42:38.124Z,976
2016-11-16T00:43:38.088Z,976.05
2016-11-16T00:44:38.047Z,976.02
2016-11-16T00:45:38.006Z,976.08
2016-11-16T00:46:37.968Z,976.02
2016-11-16T00:47:37.930Z,976.05
2016-11-16T00:48:37.890Z,976.05
2016-11-16T00:49:37.851Z,976.05
2016-11-16T00:50:37.810Z,976.08
2016-11-16T00:51:37.773Z,976.07
2016-11-16T00:52:37.734Z,976
2016-11-16T00:53:37.694Z,975.99
2016-11-16T00:54:37.655Z,975.97
2016-11-16T00:55:37.617Z,975.95
2016-11-16T00:56:37.577Z,976
2016-11-16T00:57:37.539Z,975.99
2016-11-16T00:58:37.500Z,976.07
2016-11-16T00:59:37.460Z,976.05
2016-11-16T01:00:37.421Z,976.13
2016-11-16T01:01:37.381Z,976.15
2016-11-16T01:02:37.343Z,976.08
2016-11-16T01:03:37.303Z,976.04
2016-11-16T01:04:37.263Z,976.02
2016-11-16T01:05:37.225Z,976.02
2016-11-16T01:06:37.184Z,975.99
2016-11-16T01:07:37.145Z,975.96
2016-11-16T01:08:37.107Z,975.99
2016-11-16T01:09:37.068Z,975.97
2016-11-16T01:10:37.028Z,975.95
2016-11-16T01:11:36.990Z,976.01
2016-11-16T01:12:36.950Z,975.98
2016-11-16T01:13:36.911Z,975.98
2016-11-16T01:14:36.871Z,976.02
2016-11-16T01:15:36.832Z,975.94
2016-11-16T01:16:36.796Z,975.92
2016-11-16T01:17:36.752Z,975.92
2016-11-16T01:18:36.715Z,975.83
2016-11-16T01:19:36.675Z,975.86
2016-11-16T01:20:36.636Z,975.82
2016-11-16T01:21:36.596Z,975.84
2016-11-16T01:22:36.560Z,975.84
2016-11-16T01:23:36.518Z,975.86
2016-11-16T01:24:36.480Z,975.86
2016-11-16T01:25:36.441Z,975.85
2016-11-16T01:26:36.401Z,975.82
2016-11-16T01:27:36.363Z,975.78
2016-11-16T01:28:36.323Z,975.74
2016-11-16T01:29:36.284Z,975.74
2016-11-16T01:30:36.244Z,975.76
2016-11-16T01:31:36.206Z,975.8
2016-11-16T01:32:36.167Z,975.81
2016-11-16T01:33:36.128Z,975.78
2016-11-16T01:34:36.089Z,975.78
2016-11-16T01:35:36.049Z,975.85
2016-11-16T01:36:36.009Z,975.85
2016-11-16T01:37:35.972Z,975.86
2016-11-16T01:38:35.932Z,975.82
2016-11-16T01:39:35.893Z,975.78
2016-11-16T01:40:35.856Z,975.71
2016-11-16T01:41:35.814Z,975.74
2016-11-16T01:42:35.774Z,975.76
2016-11-16T01:43:35.734Z,975.72
2016-11-16T01:44:35.696Z,975.69
2016-11-16T01:45:35.657Z,975.68
2016-11-16T01:46:35.617Z,975.7
2016-11-16T01:47:35.578Z,975.68
2016-11-16T01:48:35.539Z,975.66
2016-11-16T01:49:35.501Z,975.65
2016-11-16T01:50:35.463Z,975.64
2016-11-16T01:51:35.422Z,975.64
2016-11-16T01:52:35.383Z,975.66
2016-11-16T01:53:35.344Z,975.68
2016-11-16T01:54:35.306Z,975.72
2016-11-16T01:55:35.266Z,975.72
2016-11-16T01:56:35.227Z,975.77
2016-11-16T01:57:35.187Z,975.78
2016-11-16T01:58:35.152Z,975.8
2016-11-16T01:59:35.110Z,975.77
2016-11-16T02:00:35.071Z,975.79
2016-11-16T02:01:35.031Z,975.81
2016-11-16T02:02:34.993Z,975.75
2016-11-16T02:03:34.953Z,975.72
2016-11-16T02:04:34.915Z,975.7
2016-11-16T02:05:34.875Z,975.68
2016-11-16T02:06:34.836Z,975.66
2016-11-16T02:07:34.798Z,975.63
2016-11-16T02:08:34.756Z,975.64
2016-11-16T02:09:34.718Z,975.66
2016-11-16T02:10:34.680Z,975.6
2016-11-16T02:11:34.640Z,975.61
2016-11-16T02:12:34.600Z,975.59
2016-11-16T02:13:34.564Z,975.53
2016-11-16T02:14:34.527Z,975.54
2016-11-16T02:15:34.486Z,975.55
2016-11-16T02:16:34.445Z,975.54
2016-11-16T02:17:34.405Z,975.52
2016-11-16T02:18:34.367Z,975.49
2016-11-16T02:19:34.327Z,975.5
2016-11-16T02:20:34.289Z,975.44
2016-11-16T02:21:34.263Z,975.43
2016-11-16T02:22:34.212Z,975.48
2016-11-16T02:23:34.171Z,975.46
2016-11-16T02:24:34.132Z,975.45
2016-11-16T02:25:34.093Z,975.39
2016-11-16T02:26:34.055Z,975.44
2016-11-16T02:27:34.015Z,975.38
2016-11-16T02:28:33.977Z,975.34
2016-11-16T02:29:33.937Z,975.36
2016-11-16T02:30:33.896Z,975.35
2016-11-16T02:31:33.858Z,975.35
2016-11-16T02:32:33.820Z,975.37
2016-11-16T02:33:33.781Z,975.34
2016-11-16T02:34:33.740Z,975.35
2016-11-16T02:35:33.701Z,975.33
2016-11-16T02:36:33.662Z,975.3
2016-11-16T02:37:33.623Z,975.28
2016-11-16T02:38:33.584Z,975.29
2016-11-16T02:39:33.544Z,975.3
2016-11-16T02:40:33.508Z,975.26
2016-11-16T02:41:33.465Z,975.24
2016-11-16T02:42:33.428Z,975.2
2016-11-16T02:43:33.388Z,975.24
2016-11-16T02:44:33.348Z,975.17
2016-11-16T02:45:33.309Z,975.16
2016-11-16T02:46:33.271Z,975.2
2016-11-16T02:47:33.231Z,975.17
2016-11-16T02:48:33.191Z,975.17
2016-11-16T02:49:33.152Z,975.16
2016-11-16T02:50:33.114Z,975.13
2016-11-16T02:51:33.074Z,975.1
2016-11-16T02:52:33.034Z,975.11
2016-11-16T02:53:32.994Z,975.13
2016-11-16T02:54:32.957Z,975.12
2016-11-16T02:55:32.917Z,975.17
2016-11-16T02:56:32.878Z,975.15
2016-11-16T02:57:32.838Z,975.16
2016-11-16T02:58:32.799Z,975.15
2016-11-16T02:59:32.761Z,975.1
2016-11-16T03:00:32.722Z,975.12
2016-11-16T03:01:32.683Z,975.09
2016-11-16T03:02:32.646Z,975.11
2016-11-16T03:03:32.603Z,975.07
2016-11-16T03:04:32.565Z,975.03
2016-11-16T03:05:32.525Z,975.03
2016-11-16T03:06:32.488Z,975.02
2016-11-16T03:07:32.447Z,975.01
2016-11-16T03:08:32.407Z,974.97
2016-11-16T03:09:32.368Z,975.01
2016-11-16T03:10:32.328Z,974.98
2016-11-16T03:11:32.288Z,974.98
2016-11-16T03:12:32.251Z,975
2016-11-16T03:13:32.209Z,974.96
2016-11-16T03:14:32.170Z,974.92
2016-11-16T03:15:32.130Z,974.94
2016-11-16T03:16:32.091Z,974.9
2016-11-16T03:17:32.053Z,974.89
2016-11-16T03:18:32.012Z,974.9
2016-11-16T03:19:31.974Z,974.86
2016-11-16T03:20:31.934Z,974.87
2016-11-16T03:21:31.896Z,974.87
2016-11-16T03:22:31.856Z,974.87
2016-11-16T03:23:31.817Z,974.92
2016-11-16T03:24:31.777Z,974.9
2016-11-16T03:25:31.738Z,974.88
2016-11-16T03:26:31.698Z,974.87
2016-11-16T03:27:31.659Z,974.9
2016-11-16T03:28:31.620Z,974.86
2016-11-16T03:29:31.580Z,974.88
2016-11-16T03:30:31.542Z,974.88
2016-11-16T03:31:31.503Z,974.87
2016-11-16T03:32:31.464Z,974.87
2016-11-16T03:33:31.423Z,974.85
2016-11-16T03:34:31.385Z,974.84
2016-11-16T03:35:31.345Z,974.83
2016-11-16T03:36:31.305Z,974.85
2016-11-16T03:37:31.271Z,974.84
2016-11-16T03:38:31.228Z,974.82
2016-11-16T03:39:31.189Z,974.82
2016-11-16T03:40:31.147Z,974.88
2016-11-16T03:41:31.111Z,974.84
2016-11-16T03:42:31.072Z,974.86
2016-11-16T03:43:31.031Z,974.89
2016-11-16T03:44:30.992Z,974.87
2016-11-16T03:45:30.955Z,974.84
2016-11-16T03:46:30.915Z,974.89
2016-11-16T03:47:30.875Z,974.85
2016-11-16T03:48:30.835Z,974.87
2016-11-16T03:49:30.796Z,974.89
2016-11-16T03:50:30.759Z,974.9
2016-11-16T03:51:30.718Z,974.88
2016-11-16T03:52:30.679Z,974.87
2016-11-16T03:53:30.640Z,974.88
2016-11-16T03:54:30.600Z,974.84
2016-11-16T03:55:30.563Z,974.81
2016-11-16T03:56:30.523Z,974.82
2016-11-16T03:57:30.482Z,974.79
2016-11-16T03:58:30.444Z,974.77
2016-11-16T03:59:30.405Z,974.8
2016-11-16T04:00:30.366Z,974.74
2016-11-16T04:01:30.328Z,974.77
2016-11-16T04:02:30.288Z,974.78
2016-11-16T04:03:30.248Z,974.75
2016-11-16T04:04:30.210Z,974.78
2016-11-16T04:05:30.170Z,974.73
2016-11-16T04:06:30.131Z,974.72
2016-11-16T04:07:30.092Z,974.7
2016-11-16T04:08:30.055Z,974.69
2016-11-16T04:09:30.013Z,974.67
2016-11-16T04:10:29.975Z,974.65
2016-11-16T04:11:29.935Z,974.68
2016-11-16T04:12:29.898Z,974.63
2016-11-16T04:13:29.858Z,974.66
2016-11-16T04:14:29.818Z,974.64
2016-11-16T04:15:29.780Z,974.65
2016-11-16T04:16:29.741Z,974.7
2016-11-16T04:17:29.702Z,974.7
2016-11-16T04:18:29.663Z,974.64
2016-11-16T04:19:29.625Z,974.62
2016-11-16T04:20:29.585Z,974.65
2016-11-16T04:21:29.546Z,974.66
2016-11-16T04:22:29.507Z,974.61
2016-11-16T04:23:29.468Z,974.61
2016-11-16T04:24:29.428Z,974.6
2016-11-16T04:25:29.389Z,974.56
2016-11-16T04:26:29.350Z,974.5
2016-11-16T04:27:29.312Z,974.48
2016-11-16T04:28:29.272Z,974.51
2016-11-16T04:29:29.236Z,974.46
2016-11-16T04:30:29.193Z,974.45
2016-11-16T04:31:29.157Z,974.43
2016-11-16T04:32:29.116Z,974.37
2016-11-16T04:33:29.077Z,974.43
2016-11-16T04:34:29.038Z,974.42
2016-11-16T04:35:29.000Z,974.41
2016-11-16T04:36:28.961Z,974.41
2016-11-16T04:37:28.922Z,974.43
2016-11-16T04:38:28.882Z,974.36
2016-11-16T04:39:28.843Z,974.44
2016-11-16T04:40:28.804Z,974.43
2016-11-16T04:41:28.765Z,974.4
2016-11-16T04:42:28.725Z,974.41
2016-11-16T04:43:28.688Z,974.44
2016-11-16T04:44:28.650Z,974.41
2016-11-16T04:45:28.608Z,974.38
2016-11-16T04:46:28.568Z,974.44
2016-11-16T04:47:28.530Z,974.42
2016-11-16T04:48:28.491Z,974.42
2016-11-16T04:49:28.451Z,974.44
2016-11-16T04:50:28.412Z,974.42
2016-11-16T04:51:28.374Z,974.39
2016-11-16T04:52:28.335Z,974.37
2016-11-16T04:53:28.295Z,974.38
2016-11-16T04:54:28.258Z,974.38
2016-11-16T04:55:28.217Z,974.34
2016-11-16T04:56:28.177Z,974.36
2016-11-16T04:57:28.138Z,974.32
2016-11-16T04:58:28.098Z,974.34
2016-11-16T04:59:28.060Z,974.33
2016-11-16T05:00:28.021Z,974.41
2016-11-16T05:01:27.981Z,974.38
2016-11-16T05:02:27.945Z,974.39
2016-11-16T05:03:27.904Z,974.39
2016-11-16T05:04:27.864Z,974.37
2016-11-16T05:05:27.824Z,974.38
2016-11-16T05:06:27.785Z,974.37
2016-11-16T05:07:27.746Z,974.36
2016-11-16T05:08:27.707Z,974.36
2016-11-16T05:09:27.669Z,974.37
2016-11-16T05:10:27.628Z,974.35
2016-11-16T05:11:27.589Z,974.4
2016-11-16T05:12:27.550Z,974.37
2016-11-16T05:13:27.511Z,974.32
2016-11-16T05:14:27.471Z,974.3
2016-11-16T05:15:27.432Z,974.33
2016-11-16T05:16:27.393Z,974.31
2016-11-16T05:17:27.353Z,974.32
2016-11-16T05:18:27.315Z,974.3
2016-11-16T05:19:27.275Z,974.3
2016-11-16T05:20:27.236Z,974.33
2016-11-16T05:21:27.196Z,974.27
2016-11-16T05:22:27.158Z,974.27
2016-11-16T05:23:27.118Z,974.26
2016-11-16T05:24:27.078Z,974.32
2016-11-16T05:25:27.041Z,974.27
2016-11-16T05:26:27.000Z,974.31
2016-11-16T05:27:26.962Z,974.31
2016-11-16T05:28:26.923Z,974.31
2016-11-16T05:29:26.883Z,974.32
2016-11-16T05:30:26.843Z,974.31
2016-11-16T05:31:26.805Z,974.3
2016-11-16T05:32:26.767Z,974.26
2016-11-16T05:33:26.725Z,974.23
2016-11-16T05:34:26.687Z,974.22
2016-11-16T05:35:26.648Z,974.23
2016-11-16T05:36:26.609Z,974.21
2016-11-16T05:37:26.569Z,974.21
2016-11-16T05:38:26.531Z,974.24
2016-11-16T05:39:26.492Z,974.19
2016-11-16T05:40:26.452Z,974.19
2016-11-16T05:41:26.412Z,974.19
2016-11-16T05:42:26.374Z,974.15
2016-11-16T05:43:26.335Z,974.22
2016-11-16T05:44:26.294Z,974.2
2016-11-16T05:45:26.256Z,974.18
2016-11-16T05:46:26.216Z,974.23
2016-11-16T05:47:26.178Z,974.2
2016-11-16T05:48:26.140Z,974.23
2016-11-16T05:49:26.100Z,974.24
2016-11-16T05:50:26.061Z,974.28
2016-11-16T05:51:26.022Z,974.24
2016-11-16T05:52:25.982Z,974.24
2016-11-16T05:53:25.943Z,974.25
2016-11-16T05:54:25.903Z,974.24
2016-11-16T05:55:25.865Z,974.23
2016-11-16T05:56:25.825Z,974.21
2016-11-16T05:57:25.788Z,974.2
2016-11-16T05:58:25.749Z,974.25
2016-11-16T05:59:25.708Z,974.2
2016-11-16T06:00:25.670Z,974.16
2016-11-16T06:01:25.631Z,974.18
2016-11-16T06:02:25.591Z,974.14
2016-11-16T06:03:25.552Z,974.15
2016-11-16T06:04:25.512Z,974.22
2016-11-16T06:05:25.473Z,974.21
2016-11-16T06:06:25.433Z,974.17
2016-11-16T06:07:25.394Z,974.17
2016-11-16T06:08:25.355Z,974.16
2016-11-16T06:09:25.317Z,974.16
2016-11-16T06:10:25.277Z,974.17
2016-11-16T06:11:25.241Z,974.18
2016-11-16T06:12:25.202Z,974.14
2016-11-16T06:13:25.161Z,974.11
2016-11-16T06:14:25.121Z,974.07
2016-11-16T06:15:25.082Z,974.07
2016-11-16T06:16:25.044Z,974.05
2016-11-16T06:17:25.007Z,974.09
2016-11-16T06:18:24.968Z,974.09
2016-11-16T06:19:24.925Z,974.05
2016-11-16T06:20:24.885Z,974.06
2016-11-16T06:21:24.847Z,974.03
2016-11-16T06:22:24.807Z,974.02
2016-11-16T06:23:24.769Z,973.99
2016-11-16T06:24:24.729Z,974.06
2016-11-16T06:25:24.691Z,974.1
2016-11-16T06:26:24.651Z,974.11
2016-11-16T06:27:24.612Z,974.16
2016-11-16T06:28:24.571Z,974.14
2016-11-16T06:29:24.533Z,974.12
2016-11-16T06:30:24.493Z,974.12
2016-11-16T06:31:24.453Z,974.08
2016-11-16T06:32:24.414Z,974.07
2016-11-16T06:33:24.375Z,974.13
2016-11-16T06:34:24.336Z,974.08
2016-11-16T06:35:24.295Z,974.14
2016-11-16T06:36:24.258Z,974.15
2016-11-16T06:37:24.220Z,974.15
2016-11-16T06:38:24.180Z,974.16
2016-11-16T06:39:24.140Z,974.19
2016-11-16T06:40:24.101Z,974.22
2016-11-16T06:41:24.063Z,974.24
2016-11-16T06:42:24.022Z,974.23
2016-11-16T06:43:23.984Z,974.23
2016-11-16T06:44:23.943Z,974.27
2016-11-16T06:45:23.905Z,974.23
2016-11-16T06:46:23.866Z,974.2
2016-11-16T06:47:23.827Z,974.18
2016-11-16T06:48:23.787Z,974.15
2016-11-16T06:49:23.749Z,974.21
2016-11-16T06:50:23.708Z,974.17
2016-11-16T06:51:23.669Z,974.18
2016-11-16T06:52:23.630Z,974.17
2016-11-16T06:53:23.590Z,974.15
2016-11-16T06:54:23.552Z,974.19
2016-11-16T06:55:23.514Z,974.19
2016-11-16T06:56:23.475Z,974.17
2016-11-16T06:57:23.433Z,974.21
2016-11-16T06:58:23.398Z,974.17
2016-11-16T06:59:23.357Z,974.22
2016-11-16T07:00:23.317Z,974.22
2016-11-16T07:01:23.278Z,974.21
2016-11-16T07:02:23.238Z,974.14
2016-11-16T07:03:23.200Z,974.18
2016-11-16T07:04:23.157Z,974.19
2016-11-16T07:05:23.121Z,974.19
2016-11-16T07:06:23.083Z,974.15
2016-11-16T07:07:23.045Z,974.16
2016-11-16T07:08:23.004Z,974.12
2016-11-16T07:09:22.964Z,974.13
2016-11-16T07:10:22.927Z,974.09
2016-11-16T07:11:22.887Z,974.07
2016-11-16T07:12:22.847Z,974.06
2016-11-16T07:13:22.808Z,974.01
2016-11-16T07:14:22.769Z,974.01
2016-11-16T07:15:22.729Z,974.02
2016-11-16T07:16:22.692Z,974.06
2016-11-16T07:17:22.651Z,973.95
2016-11-16T07:18:22.612Z,974.03
2016-11-16T07:19:22.575Z,973.98
2016-11-16T07:20:22.536Z,974.01
2016-11-16T07:21:22.495Z,974.07
2016-11-16T07:22:22.460Z,974.01
2016-11-16T07:23:22.421Z,974.02
2016-11-16T07:24:22.379Z,974.02
2016-11-16T07:25:22.339Z,974
2016-11-16T07:26:22.300Z,974.04
2016-11-16T07:27:22.262Z,974.05
2016-11-16T07:28:22.222Z,974.02
2016-11-16T07:29:22.184Z,973.99
2016-11-16T07:30:22.144Z,973.99
2016-11-16T07:31:22.106Z,974.01
2016-11-16T07:32:22.066Z,973.99
2016-11-16T07:33:22.028Z,974
2016-11-16T07:34:21.988Z,973.99
2016-11-16T07:35:21.949Z,973.98
2016-11-16T07:36:21.913Z,973.99
2016-11-16T07:37:21.872Z,973.99
2016-11-16T07:38:21.832Z,973.96
2016-11-16T07:39:21.795Z,973.98
2016-11-16T07:40:21.757Z,973.98
2016-11-16T07:41:21.717Z,973.98
2016-11-16T07:42:21.678Z,973.93
2016-11-16T07:43:21.640Z,973.95
2016-11-16T07:44:21.600Z,973.92
2016-11-16T07:45:21.563Z,973.93
2016-11-16T07:46:21.524Z,973.89
2016-11-16T07:47:21.485Z,973.92
2016-11-16T07:48:21.445Z,973.91
2016-11-16T07:49:21.408Z,973.92
2016-11-16T07:50:21.370Z,973.88
2016-11-16T07:51:21.329Z,973.87
2016-11-16T07:52:21.290Z,973.83
2016-11-16T07:53:21.254Z,973.86
2016-11-16T07:54:21.215Z,973.82
2016-11-16T07:55:21.175Z,973.85
2016-11-16T07:56:21.137Z,973.83
2016-11-16T07:57:21.098Z,973.83
2016-11-16T07:58:21.060Z,973.82
2016-11-16T07:59:21.021Z,973.8
2016-11-16T08:00:20.981Z,973.82
2016-11-16T08:01:20.943Z,973.81
2016-11-16T08:02:20.904Z,973.77
2016-11-16T08:03:20.866Z,973.78
2016-11-16T08:04:20.828Z,973.78
2016-11-16T08:05:20.789Z,973.76
2016-11-16T08:06:20.752Z,973.75
2016-11-16T08:07:20.712Z,973.74
2016-11-16T08:08:20.674Z,973.73
2016-11-16T08:09:20.634Z,973.73
2016-11-16T08:10:20.594Z,973.74
2016-11-16T08:11:20.557Z,973.7
2016-11-16T08:12:20.518Z,973.74
2016-11-16T08:13:20.480Z,973.72
2016-11-16T08:14:20.440Z,973.69
2016-11-16T08:15:20.402Z,973.73
2016-11-16T08:16:20.364Z,973.69
2016-11-16T08:17:20.325Z,973.69
2016-11-16T08:18:20.286Z,973.71
2016-11-16T08:19:20.249Z,973.7
2016-11-16T08:20:20.210Z,973.7
2016-11-16T08:21:20.173Z,973.67
2016-11-16T08:22:20.132Z,973.7
2016-11-16T08:23:20.093Z,973.67
2016-11-16T08:24:20.055Z,973.63
2016-11-16T08:25:20.017Z,973.65
2016-11-16T08:26:19.978Z,973.66
2016-11-16T08:27:19.941Z,973.6
2016-11-16T08:28:19.902Z,973.6
2016-11-16T08:29:19.863Z,973.62
2016-11-16T08:30:19.824Z,973.62
2016-11-16T08:31:19.786Z,973.6
2016-11-16T08:32:19.747Z,973.58
2016-11-16T08:33:19.709Z,973.63
2016-11-16T08:34:19.671Z,973.58
2016-11-16T08:35:19.632Z,973.6
2016-11-16T08:36:19.594Z,973.62
2016-11-16T08:37:19.556Z,973.54
2016-11-16T08:38:19.517Z,973.57
2016-11-16T08:39:19.479Z,973.6
2016-11-16T08:40:19.444Z,973.59
2016-11-16T08:41:19.403Z,973.59
2016-11-16T08:42:19.365Z,973.54
2016-11-16T08:43:19.325Z,973.57
2016-11-16T08:44:19.288Z,973.53
2016-11-16T08:45:19.251Z,973.49
2016-11-16T08:46:19.217Z,973.47
2016-11-16T08:47:19.174Z,973.47
2016-11-16T08:48:19.135Z,973.43
2016-11-16T08:49:19.097Z,973.44
2016-11-16T08:50:19.058Z,973.38
2016-11-16T08:51:19.022Z,973.4
2016-11-16T08:52:18.983Z,973.42
2016-11-16T08:53:18.945Z,973.4
2016-11-16T08:54:18.906Z,973.43
2016-11-16T08:55:18.869Z,973.39
2016-11-16T08:56:18.830Z,973.42
2016-11-16T08:57:18.792Z,973.37
2016-11-16T08:58:18.756Z,973.39
2016-11-16T08:59:18.716Z,973.36
2016-11-16T09:00:18.678Z,973.4
2016-11-16T09:01:18.641Z,973.43
2016-11-16T09:02:18.602Z,973.44
2016-11-16T09:03:18.565Z,973.39
2016-11-16T09:04:18.526Z,973.44
2016-11-16T09:05:18.489Z,973.45
2016-11-16T09:06:18.454Z,973.43
2016-11-16T09:07:18.415Z,973.5
2016-11-16T09:08:18.376Z,973.46
2016-11-16T09:09:18.338Z,973.47
2016-11-16T09:10:18.301Z,973.47
2016-11-16T09:11:18.264Z,973.48
2016-11-16T09:12:18.226Z,973.47
2016-11-16T09:13:18.188Z,973.46
2016-11-16T09:14:18.151Z,973.44
2016-11-16T09:15:18.114Z,973.47
2016-11-16T09:16:18.075Z,973.5
2016-11-16T09:17:18.039Z,973.44
2016-11-16T09:18:18.001Z,973.46
2016-11-16T09:19:17.963Z,973.45
2016-11-16T09:20:17.928Z,973.44
2016-11-16T09:21:17.890Z,973.45
2016-11-16T09:22:17.852Z,973.44
2016-11-16T09:23:17.817Z,973.45
2016-11-16T09:24:17.777Z,973.43
2016-11-16T09:25:17.741Z,973.44
2016-11-16T09:26:17.708Z,973.44
2016-11-16T09:27:17.665Z,973.41
2016-11-16T09:28:17.628Z,973.45
2016-11-16T09:29:17.661Z,973.43
2016-11-16T09:30:17.553Z,973.44
2016-11-16T09:31:17.516Z,973.48
2016-11-16T09:32:17.481Z,973.44
2016-11-16T09:33:17.442Z,973.44
2016-11-16T09:34:17.406Z,973.47
2016-11-16T09:35:17.369Z,973.45
2016-11-16T09:36:17.329Z,973.44
2016-11-16T09:37:17.293Z,973.44
2016-11-16T09:38:17.257Z,973.45
2016-11-16T09:39:17.218Z,973.43
2016-11-16T09:40:17.183Z,973.4
2016-11-16T09:41:17.146Z,973.44
2016-11-16T09:42:17.107Z,973.44
2016-11-16T09:43:17.071Z,973.47
2016-11-16T09:44:17.034Z,973.44
2016-11-16T09:45:17.002Z,973.43
2016-11-16T09:46:16.959Z,973.44
2016-11-16T09:47:16.922Z,973.44
2016-11-16T09:48:16.885Z,973.37
2016-11-16T09:49:16.850Z,973.39
2016-11-16T09:50:16.817Z,973.33
2016-11-16T09:51:16.775Z,973.36
2016-11-16T09:52:16.736Z,973.33
2016-11-16T09:53:16.700Z,973.31
2016-11-16T09:54:16.663Z,973.33
2016-11-16T09:55:16.627Z,973.25
2016-11-16T09:56:16.589Z,973.26
2016-11-16T09:57:16.554Z,973.23
2016-11-16T09:58:16.515Z,973.27
2016-11-16T09:59:16.480Z,973.22
2016-11-16T10:00:16.444Z,973.22
2016-11-16T10:01:16.405Z,973.21
2016-11-16T10:02:16.369Z,973.23
2016-11-16T10:03:16.331Z,973.16
2016-11-16T10:04:16.295Z,973.21
2016-11-16T10:05:16.259Z,973.19
2016-11-16T10:06:16.223Z,973.19
2016-11-16T10:07:16.185Z,973.18
2016-11-16T10:08:16.149Z,973.16
2016-11-16T10:09:16.114Z,973.13
2016-11-16T10:10:16.077Z,973.11
2016-11-16T10:11:16.042Z,973.11
2016-11-16T10:12:16.002Z,973.08
2016-11-16T10:13:15.967Z,973.07
2016-11-16T10:14:15.929Z,973.05
2016-11-16T10:15:15.893Z,973.03
2016-11-16T10:16:15.856Z,973.02
2016-11-16T10:17:15.820Z,972.99
2016-11-16T10:18:15.783Z,973
2016-11-16T10:19:15.748Z,972.98
2016-11-16T10:20:15.711Z,972.97
2016-11-16T10:21:15.682Z,972.95
2016-11-16T10:22:15.640Z,972.92
2016-11-16T10:23:15.603Z,972.94
2016-11-16T10:24:15.569Z,972.94
2016-11-16T10:25:15.530Z,972.92
2016-11-16T10:26:15.496Z,972.9
2016-11-16T10:27:15.459Z,972.87
2016-11-16T10:28:15.423Z,972.84
2016-11-16T10:29:15.387Z,972.88
2016-11-16T10:30:15.352Z,972.88
2016-11-16T10:31:15.316Z,972.92
2016-11-16T10:32:15.281Z,972.95
2016-11-16T10:33:15.243Z,972.91
2016-11-16T10:34:15.212Z,972.87
2016-11-16T10:35:15.174Z,972.84
2016-11-16T10:36:15.138Z,972.83
2016-11-16T10:37:15.103Z,972.85
2016-11-16T10:38:15.067Z,972.84
2016-11-16T10:39:15.034Z,972.82
2016-11-16T10:40:14.994Z,972.78
2016-11-16T10:41:14.961Z,972.75
2016-11-16T10:42:14.927Z,972.75
2016-11-16T10:43:14.891Z,972.71
2016-11-16T10:44:14.855Z,972.67
2016-11-16T10:45:14.822Z,972.63
2016-11-16T10:46:14.788Z,972.6
2016-11-16T10:47:14.751Z,972.59
2016-11-16T10:48:14.717Z,972.58
2016-11-16T10:49:14.682Z,972.59
2016-11-16T10:50:14.648Z,972.54
2016-11-16T10:51:14.615Z,972.51
2016-11-16T10:52:14.578Z,972.45
2016-11-16T10:53:14.543Z,972.45
2016-11-16T10:54:14.508Z,972.52
2016-11-16T10:55:14.473Z,972.45
2016-11-16T10:56:14.440Z,972.42
2016-11-16T10:57:14.407Z,972.4
2016-11-16T10:58:14.369Z,972.39
2016-11-16T10:59:14.334Z,972.36
2016-11-16T11:00:14.299Z,972.37
2016-11-16T11:01:14.265Z,972.34
2016-11-16T11:02:14.228Z,972.34
2016-11-16T11:03:14.193Z,972.29
2016-11-16T11:04:14.159Z,972.26
2016-11-16T11:05:14.122Z,972.26
2016-11-16T11:06:14.087Z,972.24
2016-11-16T11:07:14.052Z,972.23
2016-11-16T11:08:14.017Z,972.19
2016-11-16T11:09:13.981Z,972.17
2016-11-16T11:10:13.945Z,972.15
2016-11-16T11:11:13.910Z,972.17
2016-11-16T11:12:13.876Z,972.13
2016-11-16T11:13:13.839Z,972.1
2016-11-16T11:14:13.805Z,972.1
2016-11-16T11:15:13.770Z,972.1
2016-11-16T11:16:13.734Z,972.05
2016-11-16T11:17:13.698Z,972.04
2016-11-16T11:18:13.665Z,972.04
2016-11-16T11:19:13.628Z,972
2016-11-16T11:20:13.593Z,971.96
2016-11-16T11:21:13.558Z,971.95
2016-11-16T11:22:13.521Z,971.92
2016-11-16T11:23:13.487Z,971.97
2016-11-16T11:24:13.450Z,971.9
2016-11-16T11:25:13.415Z,971.9
2016-11-16T11:26:13.379Z,971.91
2016-11-16T11:27:13.343Z,971.87
2016-11-16T11:28:13.309Z,971.91
2016-11-16T11:29:13.274Z,971.85
2016-11-16T11:30:13.238Z,971.83
2016-11-16T11:31:13.201Z,971.8
2016-11-16T11:32:13.165Z,971.86
2016-11-16T11:33:13.129Z,971.83
2016-11-16T11:34:13.094Z,971.82
2016-11-16T11:35:13.058Z,971.85
2016-11-16T11:36:13.024Z,971.81
2016-11-16T11:37:12.985Z,971.83
2016-11-16T11:38:12.949Z,971.85
2016-11-16T11:39:12.913Z,971.77
2016-11-16T11:40:12.877Z,971.77
2016-11-16T11:41:12.841Z,971.79
2016-11-16T11:42:12.805Z,971.78
2016-11-16T11:43:12.768Z,971.76
2016-11-16T11:44:12.733Z,971.77
2016-11-16T11:45:12.696Z,971.78
2016-11-16T11:46:12.658Z,971.74
2016-11-16T11:47:12.624Z,971.74
2016-11-16T11:48:12.587Z,971.71
2016-11-16T11:49:12.550Z,971.67
2016-11-16T11:50:12.514Z,971.64
2016-11-16T11:51:12.478Z,971.63
2016-11-16T11:52:12.442Z,971.61
2016-11-16T11:53:12.405Z,971.69
2016-11-16T11:54:12.370Z,971.68
2016-11-16T11:55:12.332Z,971.69
2016-11-16T11:56:12.296Z,971.68
2016-11-16T11:57:12.258Z,971.65
2016-11-16T11:58:12.242Z,971.66
2016-11-16T11:59:12.186Z,971.63
2016-11-16T12:00:12.152Z,971.63
2016-11-16T12:01:12.110Z,971.57
2016-11-16T12:02:12.076Z,971.54
2016-11-16T12:03:12.051Z,971.55
2016-11-16T12:04:12.001Z,971.54
2016-11-16T12:05:11.965Z,971.54
2016-11-16T12:06:11.928Z,971.52
2016-11-16T12:07:11.896Z,971.47
2016-11-16T12:08:11.854Z,971.48
2016-11-16T12:09:11.819Z,971.48
2016-11-16T12:10:11.783Z,971.41
2016-11-16T12:11:11.747Z,971.43
2016-11-16T12:12:11.708Z,971.37
2016-11-16T12:13:11.672Z,971.32
2016-11-16T12:14:11.634Z,971.33
2016-11-16T12:15:11.598Z,971.34
2016-11-16T12:16:11.561Z,971.35
2016-11-16T12:17:11.524Z,971.37
2016-11-16T12:18:11.487Z,971.35
2016-11-16T12:19:11.452Z,971.32
2016-11-16T12:20:11.415Z,971.31
2016-11-16T12:21:11.376Z,971.26
2016-11-16T12:22:11.341Z,971.24
2016-11-16T12:23:11.303Z,971.24
2016-11-16T12:24:11.269Z,971.2
2016-11-16T12:25:11.230Z,971.17
2016-11-16T12:26:11.194Z,971.18
2016-11-16T12:27:11.158Z,971.14
2016-11-16T12:28:11.120Z,971.15
2016-11-16T12:29:11.084Z,971.12
2016-11-16T12:30:11.046Z,971.12
2016-11-16T12:31:11.010Z,971.12